CCA1636 ZYTX-ZBAA
Flight info
| Callsign | CCA1636 |
|---|---|
| Flight time | 1h 30m |
| Altitude | 30100 |
| Route | OMD62D OMDUS A575 UKDUM W49 OSUBA OSUBA7X |
| Aircraft | A20N/M-SDE2E3FGHIRWXY/LB1 |
Departure
| Time | 2026-04-19 20:10 |
|---|---|
| Airport | Shenyang Taoxian International Airport (ZYTX) |
Arrival
| Time | 2026-04-19 21:41 |
|---|---|
| Airport | Beijing Capital International Airport (ZBAA) |
| Time | Latitude | Longitude | Altitude | Speed | Heading |
|---|---|---|---|---|---|
| 2026-04-19 19:45 | 41.63158 | 123.48453 | 208 ft | 0 kts | 48° |
| 2026-04-19 20:00 | 41.63151 | 123.48444 | 208 ft | 2 kts | 47° |
| 2026-04-19 20:00 | 41.63141 | 123.48428 | 208 ft | 2 kts | 48° |
| 2026-04-19 20:00 | 41.63131 | 123.48414 | 208 ft | 2 kts | 48° |
| 2026-04-19 20:01 | 41.63121 | 123.48399 | 208 ft | 2 kts | 48° |
| 2026-04-19 20:01 | 41.63113 | 123.48386 | 208 ft | 0 kts | 48° |
| 2026-04-19 20:02 | 41.63109 | 123.48381 | 208 ft | 2 kts | 48° |
| 2026-04-19 20:03 | 41.63100 | 123.48367 | 208 ft | 0 kts | 47° |
| 2026-04-19 20:03 | 41.63092 | 123.48357 | 208 ft | 2 kts | 28° |
| 2026-04-19 20:03 | 41.63078 | 123.48351 | 208 ft | 2 kts | 1° |
| 2026-04-19 20:03 | 41.63063 | 123.48354 | 208 ft | 2 kts | 333° |
| 2026-04-19 20:04 | 41.63056 | 123.48360 | 208 ft | 1 kts | 317° |
| 2026-04-19 20:04 | 41.63052 | 123.48367 | 208 ft | 0 kts | 317° |
| 2026-04-19 20:05 | 41.63056 | 123.48360 | 208 ft | 3 kts | 318° |
| 2026-04-19 20:05 | 41.63083 | 123.48329 | 208 ft | 5 kts | 317° |
| 2026-04-19 20:06 | 41.63100 | 123.48280 | 208 ft | 6 kts | 275° |
| 2026-04-19 20:06 | 41.63101 | 123.48212 | 208 ft | 7 kts | 263° |
| 2026-04-19 20:06 | 41.63118 | 123.48145 | 208 ft | 7 kts | 314° |
| 2026-04-19 20:06 | 41.63165 | 123.48096 | 208 ft | 9 kts | 319° |
| 2026-04-19 20:07 | 41.63216 | 123.48036 | 208 ft | 10 kts | 319° |
| 2026-04-19 20:07 | 41.63272 | 123.47965 | 208 ft | 11 kts | 298° |
| 2026-04-19 20:07 | 41.63243 | 123.47865 | 208 ft | 13 kts | 225° |
| 2026-04-19 20:07 | 41.63177 | 123.47762 | 208 ft | 15 kts | 230° |
| 2026-04-19 20:08 | 41.63114 | 123.47659 | 208 ft | 12 kts | 241° |
| 2026-04-19 20:08 | 41.63132 | 123.47568 | 208 ft | 9 kts | 318° |
| 2026-04-19 20:08 | 41.63175 | 123.47503 | 208 ft | 9 kts | 285° |
| 2026-04-19 20:08 | 41.63168 | 123.47417 | 208 ft | 8 kts | 284° |
| 2026-04-19 20:09 | 41.63208 | 123.47356 | 208 ft | 9 kts | 318° |
| 2026-04-19 20:09 | 41.63262 | 123.47302 | 208 ft | 10 kts | 339° |
| 2026-04-19 20:09 | 41.63314 | 123.47304 | 208 ft | 2 kts | 50° |
| 2026-04-19 20:09 | 41.63350 | 123.47361 | 208 ft | 29 kts | 48° |
| 2026-04-19 20:10 | 41.63657 | 123.47829 | 208 ft | 100 kts | 49° |
| 2026-04-19 20:10 | 41.64263 | 123.48729 | 221 ft | 153 kts | 46° |
| 2026-04-19 20:10 | 41.65000 | 123.49838 | 563 ft | 169 kts | 47° |
| 2026-04-19 20:10 | 41.65813 | 123.51117 | 1058 ft | 185 kts | 47° |
| 2026-04-19 20:11 | 41.66644 | 123.52483 | 1653 ft | 197 kts | 47° |
| 2026-04-19 20:11 | 41.67530 | 123.53942 | 2264 ft | 209 kts | 44° |
| 2026-04-19 20:11 | 41.68536 | 123.55444 | 2807 ft | 225 kts | 43° |
| 2026-04-19 20:11 | 41.69625 | 123.57060 | 3337 ft | 243 kts | 42° |
| 2026-04-19 20:12 | 41.70679 | 123.58938 | 3880 ft | 266 kts | 61° |
| 2026-04-19 20:12 | 41.71063 | 123.61403 | 4631 ft | 280 kts | 87° |
| 2026-04-19 20:12 | 41.70996 | 123.64004 | 5483 ft | 284 kts | 90° |
| 2026-04-19 20:12 | 41.70908 | 123.66641 | 6283 ft | 290 kts | 91° |
| 2026-04-19 20:13 | 41.70828 | 123.69324 | 7108 ft | 294 kts | 92° |
| 2026-04-19 20:13 | 41.70758 | 123.72070 | 7863 ft | 299 kts | 94° |
| 2026-04-19 20:13 | 41.70694 | 123.74852 | 8560 ft | 306 kts | 96° |
| 2026-04-19 20:13 | 41.70623 | 123.77708 | 9277 ft | 312 kts | 97° |
| 2026-04-19 20:14 | 41.70831 | 123.80624 | 9998 ft | 325 kts | 80° |
| 2026-04-19 20:14 | 41.71666 | 123.83489 | 10685 ft | 335 kts | 68° |
| 2026-04-19 20:14 | 41.72748 | 123.86268 | 11271 ft | 345 kts | 65° |
| 2026-04-19 20:14 | 41.73819 | 123.89143 | 11906 ft | 348 kts | 77° |
| 2026-04-19 20:15 | 41.74118 | 123.91230 | 12309 ft | 339 kts | 98° |
| 2026-04-19 20:15 | 41.73269 | 123.94991 | 13199 ft | 303 kts | 140° |
| 2026-04-19 20:15 | 41.71738 | 123.96632 | 13832 ft | 275 kts | 168° |
| 2026-04-19 20:15 | 41.69948 | 123.97478 | 14498 ft | 272 kts | 174° |
| 2026-04-19 20:16 | 41.68154 | 123.97945 | 15125 ft | 261 kts | 189° |
| 2026-04-19 20:16 | 41.66392 | 123.97641 | 15743 ft | 253 kts | 203° |
| 2026-04-19 20:16 | 41.64803 | 123.96660 | 16293 ft | 252 kts | 217° |
| 2026-04-19 20:16 | 41.63488 | 123.95064 | 16556 ft | 264 kts | 232° |
| 2026-04-19 20:17 | 41.62520 | 123.92942 | 16811 ft | 279 kts | 238° |
| 2026-04-19 20:17 | 41.61521 | 123.90626 | 17072 ft | 293 kts | 238° |
| 2026-04-19 20:17 | 41.60488 | 123.88245 | 17319 ft | 306 kts | 238° |
| 2026-04-19 20:17 | 41.59404 | 123.85729 | 17547 ft | 319 kts | 238° |
| 2026-04-19 20:18 | 41.58281 | 123.83115 | 17767 ft | 332 kts | 238° |
| 2026-04-19 20:18 | 41.57116 | 123.80386 | 17998 ft | 344 kts | 239° |
| 2026-04-19 20:18 | 41.55957 | 123.77539 | 18197 ft | 356 kts | 244° |
| 2026-04-19 20:18 | 41.55167 | 123.74339 | 18384 ft | 371 kts | 254° |
| 2026-04-19 20:19 | 41.54865 | 123.70885 | 18647 ft | 385 kts | 264° |
| 2026-04-19 20:19 | 41.55072 | 123.67324 | 19081 ft | 394 kts | 271° |
| 2026-04-19 20:19 | 41.55461 | 123.63698 | 19582 ft | 395 kts | 272° |
| 2026-04-19 20:19 | 41.55861 | 123.60075 | 20082 ft | 395 kts | 272° |
| 2026-04-19 20:20 | 41.56260 | 123.56494 | 20525 ft | 396 kts | 271° |
| 2026-04-19 20:20 | 41.56562 | 123.52831 | 20889 ft | 397 kts | 269° |
| 2026-04-19 20:20 | 41.56788 | 123.49133 | 21302 ft | 398 kts | 268° |
| 2026-04-19 20:20 | 41.57008 | 123.45468 | 21740 ft | 398 kts | 269° |
| 2026-04-19 20:21 | 41.57234 | 123.41745 | 22110 ft | 400 kts | 268° |
| 2026-04-19 20:21 | 41.57449 | 123.38090 | 22430 ft | 402 kts | 268° |
| 2026-04-19 20:21 | 41.57666 | 123.34351 | 22811 ft | 402 kts | 268° |
| 2026-04-19 20:21 | 41.57881 | 123.30617 | 23156 ft | 403 kts | 268° |
| 2026-04-19 20:22 | 41.58090 | 123.26922 | 23478 ft | 405 kts | 268° |
| 2026-04-19 20:22 | 41.58378 | 123.23182 | 23893 ft | 406 kts | 271° |
| 2026-04-19 20:22 | 41.58789 | 123.19462 | 24345 ft | 405 kts | 272° |
| 2026-04-19 20:22 | 41.59224 | 123.15810 | 24810 ft | 401 kts | 271° |
| 2026-04-19 20:23 | 41.59654 | 123.12166 | 25330 ft | 397 kts | 272° |
| 2026-04-19 20:23 | 41.60089 | 123.08520 | 25880 ft | 393 kts | 272° |
| 2026-04-19 20:23 | 41.60511 | 123.04953 | 26309 ft | 390 kts | 271° |
| 2026-04-19 20:23 | 41.60929 | 123.01395 | 26679 ft | 389 kts | 272° |
| 2026-04-19 20:24 | 41.61342 | 122.97857 | 27135 ft | 387 kts | 272° |
| 2026-04-19 20:24 | 41.61754 | 122.94332 | 27577 ft | 384 kts | 272° |
| 2026-04-19 20:24 | 41.62170 | 122.90819 | 28027 ft | 380 kts | 271° |
| 2026-04-19 20:24 | 41.62570 | 122.87362 | 28463 ft | 377 kts | 272° |
| 2026-04-19 20:25 | 41.62970 | 122.83963 | 28838 ft | 375 kts | 271° |
| 2026-04-19 20:25 | 41.63370 | 122.80497 | 29093 ft | 377 kts | 271° |
| 2026-04-19 20:25 | 41.63763 | 122.77068 | 29336 ft | 378 kts | 271° |
| 2026-04-19 20:25 | 41.64161 | 122.73618 | 29621 ft | 377 kts | 271° |
| 2026-04-19 20:26 | 41.64562 | 122.70127 | 29900 ft | 377 kts | 272° |
| 2026-04-19 20:26 | 41.64956 | 122.66688 | 30109 ft | 378 kts | 271° |
| 2026-04-19 20:26 | 41.65352 | 122.63226 | 30112 ft | 377 kts | 271° |
| 2026-04-19 20:27 | 41.66135 | 122.56354 | 30134 ft | 376 kts | 272° |
| 2026-04-19 20:27 | 41.66920 | 122.49434 | 30126 ft | 376 kts | 272° |
| 2026-04-19 20:28 | 41.67699 | 122.42535 | 30137 ft | 375 kts | 271° |
| 2026-04-19 20:28 | 41.68467 | 122.35664 | 30139 ft | 375 kts | 272° |
| 2026-04-19 20:29 | 41.69232 | 122.28805 | 30135 ft | 375 kts | 271° |
| 2026-04-19 20:29 | 41.69988 | 122.21942 | 30142 ft | 374 kts | 271° |
| 2026-04-19 20:30 | 41.70325 | 122.11671 | 30134 ft | 368 kts | 262° |
| 2026-04-19 20:30 | 41.69787 | 122.04898 | 30132 ft | 366 kts | 257° |
| 2026-04-19 20:31 | 41.68897 | 121.98231 | 30132 ft | 366 kts | 258° |
| 2026-04-19 20:31 | 41.67995 | 121.91582 | 30128 ft | 364 kts | 257° |
| 2026-04-19 20:32 | 41.67065 | 121.84918 | 30117 ft | 365 kts | 257° |
| 2026-04-19 20:32 | 41.66134 | 121.78264 | 30128 ft | 365 kts | 257° |
| 2026-04-19 20:33 | 41.65193 | 121.71596 | 30108 ft | 365 kts | 257° |
| 2026-04-19 20:33 | 41.64251 | 121.64964 | 30121 ft | 366 kts | 257° |
| 2026-04-19 20:34 | 41.63302 | 121.58314 | 30134 ft | 366 kts | 257° |
| 2026-04-19 20:34 | 41.62345 | 121.51630 | 30120 ft | 368 kts | 257° |
| 2026-04-19 20:35 | 41.61376 | 121.44915 | 30129 ft | 368 kts | 257° |
| 2026-04-19 20:35 | 41.60406 | 121.38219 | 30109 ft | 367 kts | 257° |
| 2026-04-19 20:36 | 41.59441 | 121.31566 | 30126 ft | 368 kts | 256° |
| 2026-04-19 20:36 | 41.58787 | 121.27090 | 30109 ft | 368 kts | 257° |
| 2026-04-19 20:37 | 41.57641 | 121.18178 | 30128 ft | 370 kts | 261° |
| 2026-04-19 20:37 | 41.57206 | 121.11324 | 30106 ft | 371 kts | 263° |
| 2026-04-19 20:38 | 41.56858 | 121.04478 | 30130 ft | 371 kts | 262° |
| 2026-04-19 20:38 | 41.56513 | 120.97621 | 30123 ft | 372 kts | 262° |
| 2026-04-19 20:39 | 41.56164 | 120.90755 | 30117 ft | 372 kts | 263° |
| 2026-04-19 20:39 | 41.55815 | 120.83910 | 30127 ft | 371 kts | 263° |
| 2026-04-19 20:40 | 41.55465 | 120.77032 | 30124 ft | 374 kts | 263° |
| 2026-04-19 20:40 | 41.55108 | 120.70126 | 30117 ft | 374 kts | 263° |
| 2026-04-19 20:41 | 41.54745 | 120.63238 | 30126 ft | 375 kts | 263° |
| 2026-04-19 20:41 | 41.54375 | 120.56279 | 30125 ft | 374 kts | 263° |
| 2026-04-19 20:42 | 41.54005 | 120.49416 | 30122 ft | 373 kts | 263° |
| 2026-04-19 20:42 | 41.53690 | 120.42536 | 30136 ft | 374 kts | 265° |
| 2026-04-19 20:43 | 41.53604 | 120.35535 | 30131 ft | 377 kts | 266° |
| 2026-04-19 20:43 | 41.53508 | 120.28595 | 30128 ft | 377 kts | 265° |
| 2026-04-19 20:44 | 41.53410 | 120.21632 | 30126 ft | 378 kts | 266° |
| 2026-04-19 20:44 | 41.53312 | 120.14607 | 30127 ft | 378 kts | 265° |
| 2026-04-19 20:45 | 41.53209 | 120.07581 | 30132 ft | 380 kts | 266° |
| 2026-04-19 20:45 | 41.53106 | 120.00578 | 30126 ft | 379 kts | 266° |
| 2026-04-19 20:46 | 41.52996 | 119.93578 | 30115 ft | 380 kts | 266° |
| 2026-04-19 20:46 | 41.52883 | 119.86540 | 30111 ft | 381 kts | 266° |
| 2026-04-19 20:47 | 41.52758 | 119.79481 | 30116 ft | 379 kts | 267° |
| 2026-04-19 20:47 | 41.52642 | 119.72495 | 30121 ft | 378 kts | 266° |
| 2026-04-19 20:48 | 41.52510 | 119.65546 | 30107 ft | 377 kts | 266° |
| 2026-04-19 20:48 | 41.52380 | 119.58580 | 30115 ft | 377 kts | 267° |
| 2026-04-19 20:49 | 41.52248 | 119.51596 | 30112 ft | 377 kts | 267° |
| 2026-04-19 20:49 | 41.52104 | 119.44604 | 30106 ft | 376 kts | 267° |
| 2026-04-19 20:50 | 41.51959 | 119.37648 | 30115 ft | 376 kts | 267° |
| 2026-04-19 20:50 | 41.51810 | 119.30705 | 30110 ft | 375 kts | 267° |
| 2026-04-19 20:51 | 41.51661 | 119.23792 | 30123 ft | 376 kts | 266° |
| 2026-04-19 20:51 | 41.51505 | 119.16840 | 30126 ft | 376 kts | 266° |
| 2026-04-19 20:52 | 41.51345 | 119.09908 | 30125 ft | 376 kts | 267° |
| 2026-04-19 20:52 | 41.51184 | 119.03008 | 30127 ft | 375 kts | 266° |
| 2026-04-19 20:53 | 41.51006 | 118.96057 | 30126 ft | 375 kts | 268° |
| 2026-04-19 20:53 | 41.50839 | 118.89161 | 30122 ft | 375 kts | 267° |
| 2026-04-19 20:54 | 41.50658 | 118.82228 | 30121 ft | 375 kts | 267° |
| 2026-04-19 20:54 | 41.50478 | 118.75266 | 30127 ft | 377 kts | 268° |
| 2026-04-19 20:55 | 41.50329 | 118.68274 | 30120 ft | 377 kts | 267° |
| 2026-04-19 20:55 | 41.50169 | 118.61346 | 30102 ft | 376 kts | 267° |
| 2026-04-19 20:56 | 41.50009 | 118.54368 | 30087 ft | 379 kts | 268° |
| 2026-04-19 20:56 | 41.49836 | 118.47367 | 30065 ft | 378 kts | 268° |
| 2026-04-19 20:57 | 41.49826 | 118.40350 | 30067 ft | 379 kts | 270° |
| 2026-04-19 20:57 | 41.49913 | 118.33332 | 30058 ft | 381 kts | 270° |
| 2026-04-19 20:58 | 41.49995 | 118.26302 | 30055 ft | 381 kts | 269° |
| 2026-04-19 20:58 | 41.50068 | 118.19297 | 30058 ft | 381 kts | 270° |
| 2026-04-19 20:59 | 41.50140 | 118.12220 | 30073 ft | 381 kts | 270° |
| 2026-04-19 20:59 | 41.50211 | 118.05205 | 30103 ft | 382 kts | 270° |
| 2026-04-19 21:00 | 41.50275 | 117.98104 | 30123 ft | 382 kts | 270° |
| 2026-04-19 21:00 | 41.50340 | 117.91026 | 30133 ft | 383 kts | 270° |
| 2026-04-19 21:01 | 41.50391 | 117.83953 | 30136 ft | 384 kts | 270° |
| 2026-04-19 21:01 | 41.50442 | 117.76865 | 30140 ft | 383 kts | 270° |
| 2026-04-19 21:02 | 41.50489 | 117.69766 | 30147 ft | 384 kts | 270° |
| 2026-04-19 21:02 | 41.50531 | 117.62678 | 30157 ft | 384 kts | 270° |
| 2026-04-19 21:03 | 41.50570 | 117.55576 | 30167 ft | 383 kts | 270° |
| 2026-04-19 21:03 | 41.50602 | 117.48490 | 30169 ft | 383 kts | 270° |
| 2026-04-19 21:04 | 41.50622 | 117.41457 | 30172 ft | 383 kts | 269° |
| 2026-04-19 21:04 | 41.49524 | 117.34498 | 30172 ft | 390 kts | 250° |
| 2026-04-19 21:05 | 41.46549 | 117.28351 | 30171 ft | 404 kts | 233° |
| 2026-04-19 21:05 | 41.44449 | 117.25862 | 30008 ft | 413 kts | 224° |
| 2026-04-19 21:05 | 41.41957 | 117.23888 | 29677 ft | 427 kts | 214° |
| 2026-04-19 21:06 | 41.39122 | 117.22535 | 29059 ft | 440 kts | 204° |
| 2026-04-19 21:06 | 41.36157 | 117.21611 | 28343 ft | 439 kts | 202° |
| 2026-04-19 21:06 | 41.33187 | 117.20732 | 27481 ft | 442 kts | 202° |
| 2026-04-19 21:06 | 41.30190 | 117.19855 | 26523 ft | 447 kts | 201° |
| 2026-04-19 21:07 | 41.27119 | 117.18967 | 25522 ft | 451 kts | 201° |
| 2026-04-19 21:07 | 41.24077 | 117.18089 | 24524 ft | 456 kts | 201° |
| 2026-04-19 21:07 | 41.20972 | 117.17194 | 23465 ft | 462 kts | 201° |
| 2026-04-19 21:07 | 41.17848 | 117.16302 | 22622 ft | 461 kts | 200° |
| 2026-04-19 21:08 | 41.14705 | 117.15408 | 21959 ft | 456 kts | 200° |
| 2026-04-19 21:08 | 41.11639 | 117.14539 | 21290 ft | 452 kts | 201° |
| 2026-04-19 21:08 | 41.08580 | 117.13667 | 20619 ft | 449 kts | 201° |
| 2026-04-19 21:08 | 41.05534 | 117.12797 | 19945 ft | 447 kts | 201° |
| 2026-04-19 21:09 | 41.02539 | 117.11941 | 19293 ft | 444 kts | 200° |
| 2026-04-19 21:09 | 40.99514 | 117.11076 | 18612 ft | 443 kts | 201° |
| 2026-04-19 21:09 | 40.96542 | 117.10230 | 17961 ft | 440 kts | 201° |
| 2026-04-19 21:09 | 40.93560 | 117.09382 | 17300 ft | 438 kts | 201° |
| 2026-04-19 21:10 | 40.90587 | 117.08538 | 16637 ft | 436 kts | 200° |
| 2026-04-19 21:10 | 40.87613 | 117.07690 | 15976 ft | 434 kts | 200° |
| 2026-04-19 21:10 | 40.84698 | 117.06862 | 15329 ft | 432 kts | 200° |
| 2026-04-19 21:10 | 40.81753 | 117.06027 | 14672 ft | 430 kts | 200° |
| 2026-04-19 21:11 | 40.78873 | 117.05212 | 14026 ft | 428 kts | 199° |
| 2026-04-19 21:11 | 40.75990 | 117.04338 | 13367 ft | 422 kts | 204° |
| 2026-04-19 21:11 | 40.73325 | 117.02891 | 12730 ft | 407 kts | 217° |
| 2026-04-19 21:11 | 40.71023 | 117.00818 | 12589 ft | 400 kts | 228° |
| 2026-04-19 21:12 | 40.68922 | 116.98438 | 12145 ft | 399 kts | 230° |
| 2026-04-19 21:12 | 40.66847 | 116.96027 | 11664 ft | 393 kts | 229° |
| 2026-04-19 21:12 | 40.64760 | 116.93631 | 11666 ft | 398 kts | 230° |
| 2026-04-19 21:12 | 40.62697 | 116.91275 | 11697 ft | 396 kts | 229° |
| 2026-04-19 21:13 | 40.60591 | 116.88885 | 11710 ft | 400 kts | 229° |
| 2026-04-19 21:13 | 40.58472 | 116.86488 | 11731 ft | 398 kts | 229° |
| 2026-04-19 21:13 | 40.56402 | 116.84158 | 11767 ft | 396 kts | 229° |
| 2026-04-19 21:13 | 40.54302 | 116.81785 | 11785 ft | 396 kts | 229° |
| 2026-04-19 21:14 | 40.52215 | 116.79437 | 11805 ft | 394 kts | 229° |
| 2026-04-19 21:14 | 40.50136 | 116.77103 | 11825 ft | 392 kts | 229° |
| 2026-04-19 21:14 | 40.48067 | 116.74772 | 11854 ft | 390 kts | 229° |
| 2026-04-19 21:14 | 40.46029 | 116.72488 | 11880 ft | 389 kts | 229° |
| 2026-04-19 21:15 | 40.43902 | 116.70184 | 11880 ft | 403 kts | 223° |
| 2026-04-19 21:15 | 40.41303 | 116.68618 | 11889 ft | 423 kts | 201° |
| 2026-04-19 21:15 | 40.38307 | 116.68301 | 11901 ft | 442 kts | 181° |
| 2026-04-19 21:15 | 40.35258 | 116.68780 | 11938 ft | 442 kts | 177° |
| 2026-04-19 21:16 | 40.32242 | 116.69320 | 11939 ft | 443 kts | 176° |
| 2026-04-19 21:16 | 40.29182 | 116.69858 | 11938 ft | 439 kts | 177° |
| 2026-04-19 21:16 | 40.26157 | 116.70363 | 11944 ft | 440 kts | 178° |
| 2026-04-19 21:16 | 40.23127 | 116.70850 | 11934 ft | 439 kts | 178° |
| 2026-04-19 21:17 | 40.20108 | 116.71319 | 11926 ft | 440 kts | 178° |
| 2026-04-19 21:17 | 40.17073 | 116.71787 | 11930 ft | 439 kts | 178° |
| 2026-04-19 21:17 | 40.14055 | 116.72258 | 11892 ft | 423 kts | 178° |
| 2026-04-19 21:17 | 40.11180 | 116.72708 | 11553 ft | 413 kts | 178° |
| 2026-04-19 21:18 | 40.08371 | 116.73143 | 11200 ft | 402 kts | 178° |
| 2026-04-19 21:18 | 40.05698 | 116.73559 | 10989 ft | 375 kts | 178° |
| 2026-04-19 21:18 | 40.03211 | 116.73951 | 10816 ft | 348 kts | 178° |
| 2026-04-19 21:18 | 40.00882 | 116.74316 | 10645 ft | 324 kts | 179° |
| 2026-04-19 21:19 | 39.98654 | 116.74656 | 10520 ft | 318 kts | 179° |
| 2026-04-19 21:19 | 39.96481 | 116.74984 | 10383 ft | 315 kts | 179° |
| 2026-04-19 21:19 | 39.94304 | 116.75314 | 10262 ft | 315 kts | 179° |
| 2026-04-19 21:19 | 39.92133 | 116.75640 | 10126 ft | 314 kts | 178° |
| 2026-04-19 21:20 | 39.89970 | 116.75968 | 9628 ft | 315 kts | 178° |
| 2026-04-19 21:20 | 39.87785 | 116.76302 | 8838 ft | 320 kts | 178° |
| 2026-04-19 21:20 | 39.85570 | 116.76645 | 8480 ft | 318 kts | 179° |
| 2026-04-19 21:20 | 39.83378 | 116.76981 | 8330 ft | 321 kts | 178° |
| 2026-04-19 21:21 | 39.81148 | 116.77322 | 8160 ft | 321 kts | 178° |
| 2026-04-19 21:21 | 39.78924 | 116.77666 | 7952 ft | 321 kts | 178° |
| 2026-04-19 21:21 | 39.76726 | 116.78004 | 7697 ft | 319 kts | 178° |
| 2026-04-19 21:21 | 39.74563 | 116.78338 | 7599 ft | 306 kts | 178° |
| 2026-04-19 21:22 | 39.72474 | 116.78662 | 7519 ft | 294 kts | 179° |
| 2026-04-19 21:22 | 39.70483 | 116.78915 | 7401 ft | 282 kts | 188° |
| 2026-04-19 21:22 | 39.68731 | 116.78307 | 7210 ft | 250 kts | 226° |
| 2026-04-19 21:22 | 39.67716 | 116.76667 | 6967 ft | 218 kts | 268° |
| 2026-04-19 21:23 | 39.67638 | 116.74813 | 6780 ft | 205 kts | 284° |
| 2026-04-19 21:23 | 39.67706 | 116.72979 | 6657 ft | 205 kts | 281° |
| 2026-04-19 21:23 | 39.67685 | 116.71131 | 6401 ft | 205 kts | 278° |
| 2026-04-19 21:23 | 39.67600 | 116.69286 | 6045 ft | 208 kts | 277° |
| 2026-04-19 21:24 | 39.67478 | 116.67410 | 5692 ft | 209 kts | 276° |
| 2026-04-19 21:24 | 39.67724 | 116.65652 | 5336 ft | 193 kts | 307° |
| 2026-04-19 21:24 | 39.68678 | 116.64497 | 4963 ft | 192 kts | 329° |
| 2026-04-19 21:24 | 39.69883 | 116.63720 | 4599 ft | 194 kts | 338° |
| 2026-04-19 21:25 | 39.71180 | 116.63231 | 4267 ft | 196 kts | 345° |
| 2026-04-19 21:25 | 39.72497 | 116.62947 | 4037 ft | 185 kts | 348° |
| 2026-04-19 21:25 | 39.73740 | 116.62745 | 3741 ft | 180 kts | 348° |
| 2026-04-19 21:25 | 39.74990 | 116.62547 | 3480 ft | 182 kts | 348° |
| 2026-04-19 21:26 | 39.76268 | 116.62345 | 3246 ft | 184 kts | 349° |
| 2026-04-19 21:26 | 39.77527 | 116.62146 | 3028 ft | 183 kts | 349° |
| 2026-04-19 21:26 | 39.78788 | 116.61946 | 2799 ft | 184 kts | 349° |
| 2026-04-19 21:26 | 39.80069 | 116.61742 | 2473 ft | 185 kts | 349° |
| 2026-04-19 21:27 | 39.81347 | 116.61538 | 2204 ft | 183 kts | 350° |
| 2026-04-19 21:27 | 39.82615 | 116.61336 | 2014 ft | 182 kts | 350° |
| 2026-04-19 21:27 | 39.83830 | 116.61145 | 2044 ft | 168 kts | 349° |
| 2026-04-19 21:27 | 39.84929 | 116.60972 | 1981 ft | 151 kts | 349° |
| 2026-04-19 21:28 | 39.85918 | 116.60817 | 1984 ft | 140 kts | 348° |
| 2026-04-19 21:28 | 39.86879 | 116.60662 | 1993 ft | 138 kts | 348° |
| 2026-04-19 21:28 | 39.87843 | 116.60506 | 1977 ft | 138 kts | 348° |
| 2026-04-19 21:28 | 39.88795 | 116.60354 | 1981 ft | 138 kts | 348° |
| 2026-04-19 21:29 | 39.89743 | 116.60203 | 1985 ft | 138 kts | 348° |
| 2026-04-19 21:29 | 39.90704 | 116.60050 | 1981 ft | 138 kts | 348° |
| 2026-04-19 21:29 | 39.91651 | 116.59901 | 1978 ft | 137 kts | 348° |
| 2026-04-19 21:29 | 39.92608 | 116.59750 | 1982 ft | 137 kts | 348° |
| 2026-04-19 21:30 | 39.93557 | 116.59601 | 1986 ft | 138 kts | 348° |
| 2026-04-19 21:30 | 39.94506 | 116.59451 | 1980 ft | 137 kts | 348° |
| 2026-04-19 21:30 | 39.95456 | 116.59302 | 1978 ft | 137 kts | 348° |
| 2026-04-19 21:30 | 39.96364 | 116.59161 | 1953 ft | 127 kts | 348° |
| 2026-04-19 21:31 | 39.97232 | 116.59023 | 1956 ft | 125 kts | 348° |
| 2026-04-19 21:31 | 39.98098 | 116.58884 | 1958 ft | 125 kts | 348° |
| 2026-04-19 21:31 | 39.98955 | 116.58748 | 1795 ft | 124 kts | 349° |
| 2026-04-19 21:31 | 39.99826 | 116.58610 | 1634 ft | 126 kts | 348° |
| 2026-04-19 21:32 | 40.00699 | 116.58474 | 1463 ft | 126 kts | 348° |
| 2026-04-19 21:32 | 40.01573 | 116.58336 | 1297 ft | 127 kts | 348° |
| 2026-04-19 21:32 | 40.02461 | 116.58195 | 1118 ft | 129 kts | 349° |
| 2026-04-19 21:32 | 40.03366 | 116.58061 | 931 ft | 130 kts | 350° |
| 2026-04-19 21:33 | 40.04262 | 116.57928 | 758 ft | 131 kts | 348° |
| 2026-04-19 21:33 | 40.05170 | 116.57761 | 585 ft | 131 kts | 349° |
| 2026-04-19 21:33 | 40.06076 | 116.57619 | 421 ft | 132 kts | 351° |
| 2026-04-19 21:33 | 40.06983 | 116.57469 | 225 ft | 133 kts | 351° |
| 2026-04-19 21:34 | 40.07903 | 116.57325 | 126 ft | 123 kts | 356° |
| 2026-04-19 21:34 | 40.08824 | 116.57167 | 322 ft | 144 kts | 351° |
| 2026-04-19 21:34 | 40.09877 | 116.57018 | 663 ft | 163 kts | 352° |
| 2026-04-19 21:34 | 40.11093 | 116.56802 | 1025 ft | 185 kts | 345° |
| 2026-04-19 21:35 | 40.12334 | 116.56175 | 1429 ft | 206 kts | 326° |
| 2026-04-19 21:35 | 40.13318 | 116.54751 | 1820 ft | 207 kts | 295° |
| 2026-04-19 21:35 | 40.13450 | 116.53011 | 1829 ft | 188 kts | 255° |
| 2026-04-19 21:35 | 40.12670 | 116.51633 | 1935 ft | 199 kts | 213° |
| 2026-04-19 21:36 | 40.11331 | 116.51073 | 1830 ft | 204 kts | 198° |
| 2026-04-19 21:36 | 40.09960 | 116.50615 | 1686 ft | 201 kts | 200° |
| 2026-04-19 21:36 | 40.08594 | 116.50236 | 1732 ft | 203 kts | 192° |
| 2026-04-19 21:36 | 40.07173 | 116.50121 | 1811 ft | 203 kts | 185° |
| 2026-04-19 21:37 | 40.05800 | 116.50136 | 1678 ft | 192 kts | 180° |
| 2026-04-19 21:37 | 40.04505 | 116.50291 | 1538 ft | 182 kts | 178° |
| 2026-04-19 21:37 | 40.03302 | 116.50639 | 1388 ft | 173 kts | 162° |
| 2026-04-19 21:37 | 40.02320 | 116.51442 | 1168 ft | 161 kts | 133° |
| 2026-04-19 21:38 | 40.01756 | 116.52613 | 1071 ft | 150 kts | 110° |
| 2026-04-19 21:38 | 40.01545 | 116.53955 | 1068 ft | 149 kts | 92° |
| 2026-04-19 21:38 | 40.01506 | 116.55306 | 1091 ft | 149 kts | 87° |
| 2026-04-19 21:38 | 40.01640 | 116.56622 | 1102 ft | 143 kts | 62° |
| 2026-04-19 21:39 | 40.02253 | 116.57594 | 1068 ft | 137 kts | 27° |
| 2026-04-19 21:39 | 40.03119 | 116.58025 | 904 ft | 132 kts | 6° |
| 2026-04-19 21:39 | 40.04007 | 116.57989 | 769 ft | 129 kts | 346° |
| 2026-04-19 21:39 | 40.04897 | 116.57800 | 620 ft | 130 kts | 351° |
| 2026-04-19 21:40 | 40.06698 | 116.57515 | 285 ft | 130 kts | 351° |
| 2026-04-19 21:40 | 40.07601 | 116.57379 | 134 ft | 130 kts | 351° |
| 2026-04-19 21:40 | 40.08412 | 116.57247 | 124 ft | 98 kts | 352° |
| 2026-04-19 21:41 | 40.08947 | 116.57159 | 124 ft | 56 kts | 357° |
| 2026-04-19 21:41 | 40.09168 | 116.57158 | 124 ft | 18 kts | 19° |
| 2026-04-19 21:41 | 40.09289 | 116.57214 | 124 ft | 14 kts | 19° |
| 2026-04-19 21:41 | 40.09345 | 116.57299 | 124 ft | 10 kts | 88° |
| 2026-04-19 21:42 | 40.09349 | 116.57399 | 124 ft | 8 kts | 103° |
| 2026-04-19 21:42 | 40.09314 | 116.57423 | 124 ft | 3 kts | 174° |
| 2026-04-19 21:42 | 40.09259 | 116.57430 | 124 ft | 12 kts | 173° |
| 2026-04-19 21:42 | 40.09148 | 116.57448 | 124 ft | 18 kts | 174° |
| 2026-04-19 21:43 | 40.09075 | 116.57513 | 124 ft | 13 kts | 101° |
| 2026-04-19 21:43 | 40.09043 | 116.57587 | 124 ft | 8 kts | 173° |
| 2026-04-19 21:43 | 40.08993 | 116.57594 | 124 ft | 4 kts | 174° |
| 2026-04-19 21:43 | 40.08984 | 116.57595 | 124 ft | 0 kts | 173° |